sensor_id;sensor_type;location;lat;lon;timestamp;P1;durP1;ratioP1;P2;durP2;ratioP2
20870;SDS011;10595;51.218;3.452;2024-01-10T00:01:42;12.37;;;5.00;;
20870;SDS011;10595;51.218;3.452;2024-01-10T00:04:08;10.93;;;5.23;;
20870;SDS011;10595;51.218;3.452;2024-01-10T00:06:34;11.63;;;4.63;;
20870;SDS011;10595;51.218;3.452;2024-01-10T00:09:00;10.10;;;4.80;;
20870;SDS011;10595;51.218;3.452;2024-01-10T00:11:27;7.97;;;4.70;;
20870;SDS011;10595;51.218;3.452;2024-01-10T00:13:53;15.03;;;5.43;;
20870;SDS011;10595;51.218;3.452;2024-01-10T00:16:24;11.20;;;5.20;;
20870;SDS011;10595;51.218;3.452;2024-01-10T00:18:50;8.73;;;4.70;;
20870;SDS011;10595;51.218;3.452;2024-01-10T00:21:16;11.03;;;5.27;;
20870;SDS011;10595;51.218;3.452;2024-01-10T00:23:42;10.00;;;5.23;;
20870;SDS011;10595;51.218;3.452;2024-01-10T00:26:08;11.10;;;5.13;;
20870;SDS011;10595;51.218;3.452;2024-01-10T00:28:34;10.80;;;5.60;;
20870;SDS011;10595;51.218;3.452;2024-01-10T00:31:01;8.17;;;4.97;;
20870;SDS011;10595;51.218;3.452;2024-01-10T00:33:27;9.63;;;4.93;;
20870;SDS011;10595;51.218;3.452;2024-01-10T00:35:52;13.47;;;5.00;;
20870;SDS011;10595;51.218;3.452;2024-01-10T00:38:18;12.23;;;5.10;;
20870;SDS011;10595;51.218;3.452;2024-01-10T00:40:45;9.73;;;5.07;;
20870;SDS011;10595;51.218;3.452;2024-01-10T00:43:11;9.33;;;5.20;;
20870;SDS011;10595;51.218;3.452;2024-01-10T00:45:37;9.53;;;5.23;;
20870;SDS011;10595;51.218;3.452;2024-01-10T00:51:21;11.40;;;5.77;;
20870;SDS011;10595;51.218;3.452;2024-01-10T00:53:47;8.43;;;5.03;;
20870;SDS011;10595;51.218;3.452;2024-01-10T00:56:13;8.77;;;5.40;;
20870;SDS011;10595;51.218;3.452;2024-01-10T00:58:39;10.30;;;4.80;;
20870;SDS011;10595;51.218;3.452;2024-01-10T01:01:06;12.50;;;5.70;;
20870;SDS011;10595;51.218;3.452;2024-01-10T01:03:32;14.60;;;5.67;;
20870;SDS011;10595;51.218;3.452;2024-01-10T01:05:58;12.33;;;5.60;;
20870;SDS011;10595;51.218;3.452;2024-01-10T01:08:24;10.63;;;4.90;;
20870;SDS011;10595;51.218;3.452;2024-01-10T01:10:50;9.53;;;4.73;;
20870;SDS011;10595;51.218;3.452;2024-01-10T01:13:16;9.93;;;4.57;;
20870;SDS011;10595;51.218;3.452;2024-01-10T01:15:43;7.70;;;4.43;;
20870;SDS011;10595;51.218;3.452;2024-01-10T01:18:09;10.90;;;5.17;;
20870;SDS011;10595;51.218;3.452;2024-01-10T01:20:37;10.20;;;5.07;;
20870;SDS011;10595;51.218;3.452;2024-01-10T01:23:03;8.87;;;4.90;;
20870;SDS011;10595;51.218;3.452;2024-01-10T01:25:29;9.03;;;4.77;;
20870;SDS011;10595;51.218;3.452;2024-01-10T01:27:55;8.10;;;4.40;;
20870;SDS011;10595;51.218;3.452;2024-01-10T01:30:21;10.37;;;5.60;;
20870;SDS011;10595;51.218;3.452;2024-01-10T01:32:47;9.77;;;4.80;;
20870;SDS011;10595;51.218;3.452;2024-01-10T01:35:13;10.23;;;4.87;;
20870;SDS011;10595;51.218;3.452;2024-01-10T01:37:40;9.00;;;4.60;;
20870;SDS011;10595;51.218;3.452;2024-01-10T01:40:06;9.07;;;4.60;;
20870;SDS011;10595;51.218;3.452;2024-01-10T01:42:32;9.93;;;4.37;;
20870;SDS011;10595;51.218;3.452;2024-01-10T01:44:58;11.30;;;4.87;;
20870;SDS011;10595;51.218;3.452;2024-01-10T01:47:24;10.23;;;4.80;;
20870;SDS011;10595;51.218;3.452;2024-01-10T01:49:52;8.37;;;4.40;;
20870;SDS011;10595;51.218;3.452;2024-01-10T01:52:18;9.33;;;4.97;;
20870;SDS011;10595;51.218;3.452;2024-01-10T01:54:44;7.03;;;4.23;;
20870;SDS011;10595;51.218;3.452;2024-01-10T01:57:10;8.93;;;4.17;;
20870;SDS011;10595;51.218;3.452;2024-01-10T01:59:36;8.10;;;4.27;;
20870;SDS011;10595;51.218;3.452;2024-01-10T02:02:02;7.57;;;4.10;;
20870;SDS011;10595;51.218;3.452;2024-01-10T02:04:30;9.13;;;4.57;;
20870;SDS011;10595;51.218;3.452;2024-01-10T02:06:56;9.33;;;4.30;;
20870;SDS011;10595;51.218;3.452;2024-01-10T02:09:22;8.50;;;4.07;;
20870;SDS011;10595;51.218;3.452;2024-01-10T02:11:48;8.70;;;4.57;;
20870;SDS011;10595;51.218;3.452;2024-01-10T02:14:14;7.33;;;4.30;;
20870;SDS011;10595;51.218;3.452;2024-01-10T02:16:41;7.10;;;4.03;;
20870;SDS011;10595;51.218;3.452;2024-01-10T02:19:17;7.90;;;4.40;;
20870;SDS011;10595;51.218;3.452;2024-01-10T02:21:43;7.40;;;4.30;;
20870;SDS011;10595;51.218;3.452;2024-01-10T02:24:09;8.57;;;4.37;;
20870;SDS011;10595;51.218;3.452;2024-01-10T02:26:35;7.93;;;4.20;;
20870;SDS011;10595;51.218;3.452;2024-01-10T02:29:01;7.00;;;3.87;;
20870;SDS011;10595;51.218;3.452;2024-01-10T02:31:27;7.27;;;4.10;;
20870;SDS011;10595;51.218;3.452;2024-01-10T02:33:54;9.40;;;4.27;;
20870;SDS011;10595;51.218;3.452;2024-01-10T02:36:20;7.80;;;3.67;;
20870;SDS011;10595;51.218;3.452;2024-01-10T02:38:46;8.53;;;4.33;;
20870;SDS011;10595;51.218;3.452;2024-01-10T02:41:12;9.50;;;4.37;;
20870;SDS011;10595;51.218;3.452;2024-01-10T02:43:39;7.97;;;4.37;;
20870;SDS011;10595;51.218;3.452;2024-01-10T02:46:05;6.73;;;3.90;;
20870;SDS011;10595;51.218;3.452;2024-01-10T02:48:30;7.57;;;4.60;;
20870;SDS011;10595;51.218;3.452;2024-01-10T02:50:56;7.53;;;3.70;;
20870;SDS011;10595;51.218;3.452;2024-01-10T02:53:22;7.00;;;3.87;;
20870;SDS011;10595;51.218;3.452;2024-01-10T02:55:49;6.77;;;3.73;;
20870;SDS011;10595;51.218;3.452;2024-01-10T02:58:15;11.77;;;4.60;;
20870;SDS011;10595;51.218;3.452;2024-01-10T03:00:42;8.73;;;4.57;;
20870;SDS011;10595;51.218;3.452;2024-01-10T03:03:08;8.93;;;4.40;;
20870;SDS011;10595;51.218;3.452;2024-01-10T03:05:34;8.50;;;4.10;;
20870;SDS011;10595;51.218;3.452;2024-01-10T03:08:00;9.43;;;4.87;;
20870;SDS011;10595;51.218;3.452;2024-01-10T03:10:27;8.27;;;4.50;;
20870;SDS011;10595;51.218;3.452;2024-01-10T03:12:54;8.27;;;4.50;;
20870;SDS011;10595;51.218;3.452;2024-01-10T03:15:20;11.47;;;4.60;;
20870;SDS011;10595;51.218;3.452;2024-01-10T03:17:46;8.17;;;4.20;;
20870;SDS011;10595;51.218;3.452;2024-01-10T03:20:12;7.40;;;4.50;;
20870;SDS011;10595;51.218;3.452;2024-01-10T03:22:37;10.20;;;4.33;;
20870;SDS011;10595;51.218;3.452;2024-01-10T03:25:04;10.80;;;4.63;;
20870;SDS011;10595;51.218;3.452;2024-01-10T03:27:30;8.33;;;4.13;;
20870;SDS011;10595;51.218;3.452;2024-01-10T03:29:56;10.63;;;4.30;;
20870;SDS011;10595;51.218;3.452;2024-01-10T03:32:22;8.50;;;4.23;;
20870;SDS011;10595;51.218;3.452;2024-01-10T03:34:48;9.50;;;4.87;;
20870;SDS011;10595;51.218;3.452;2024-01-10T03:37:16;10.93;;;4.60;;
20870;SDS011;10595;51.218;3.452;2024-01-10T03:39:42;8.97;;;4.60;;
20870;SDS011;10595;51.218;3.452;2024-01-10T03:42:08;8.37;;;4.60;;
20870;SDS011;10595;51.218;3.452;2024-01-10T03:44:34;10.57;;;4.90;;
20870;SDS011;10595;51.218;3.452;2024-01-10T03:47:00;8.20;;;4.70;;
20870;SDS011;10595;51.218;3.452;2024-01-10T03:49:26;10.03;;;4.63;;
20870;SDS011;10595;51.218;3.452;2024-01-10T03:51:52;9.20;;;4.30;;
20870;SDS011;10595;51.218;3.452;2024-01-10T03:54:18;9.13;;;4.93;;
20870;SDS011;10595;51.218;3.452;2024-01-10T03:56:44;8.27;;;4.73;;
20870;SDS011;10595;51.218;3.452;2024-01-10T03:59:10;7.93;;;4.53;;
20870;SDS011;10595;51.218;3.452;2024-01-10T04:01:36;8.60;;;4.33;;
20870;SDS011;10595;51.218;3.452;2024-01-10T04:04:04;8.93;;;4.50;;
20870;SDS011;10595;51.218;3.452;2024-01-10T04:06:30;8.50;;;4.33;;
20870;SDS011;10595;51.218;3.452;2024-01-10T04:08:56;10.00;;;4.80;;
20870;SDS011;10595;51.218;3.452;2024-01-10T04:11:22;7.57;;;4.63;;
20870;SDS011;10595;51.218;3.452;2024-01-10T04:13:48;7.97;;;4.53;;
20870;SDS011;10595;51.218;3.452;2024-01-10T04:16:14;9.20;;;4.60;;
20870;SDS011;10595;51.218;3.452;2024-01-10T04:18:40;8.50;;;4.50;;
20870;SDS011;10595;51.218;3.452;2024-01-10T04:21:06;10.70;;;4.67;;
20870;SDS011;10595;51.218;3.452;2024-01-10T04:23:33;7.43;;;4.00;;
20870;SDS011;10595;51.218;3.452;2024-01-10T04:26:00;8.07;;;4.47;;
20870;SDS011;10595;51.218;3.452;2024-01-10T04:28:26;7.87;;;4.83;;
20870;SDS011;10595;51.218;3.452;2024-01-10T04:30:52;10.37;;;4.83;;
20870;SDS011;10595;51.218;3.452;2024-01-10T04:33:18;7.90;;;4.63;;
20870;SDS011;10595;51.218;3.452;2024-01-10T04:35:44;8.23;;;4.03;;
20870;SDS011;10595;51.218;3.452;2024-01-10T04:38:10;9.57;;;4.70;;
20870;SDS011;10595;51.218;3.452;2024-01-10T04:40:36;8.03;;;4.40;;
20870;SDS011;10595;51.218;3.452;2024-01-10T04:43:02;8.10;;;4.50;;
20870;SDS011;10595;51.218;3.452;2024-01-10T04:45:28;9.37;;;4.87;;
20870;SDS011;10595;51.218;3.452;2024-01-10T04:47:54;6.93;;;3.83;;
20870;SDS011;10595;51.218;3.452;2024-01-10T04:50:21;7.37;;;4.27;;
20870;SDS011;10595;51.218;3.452;2024-01-10T04:52:46;7.30;;;3.83;;
20870;SDS011;10595;51.218;3.452;2024-01-10T04:55:12;7.00;;;4.07;;
20870;SDS011;10595;51.218;3.452;2024-01-10T04:57:38;10.90;;;4.37;;
20870;SDS011;10595;51.218;3.452;2024-01-10T05:00:05;8.80;;;4.20;;
20870;SDS011;10595;51.218;3.452;2024-01-10T05:02:31;8.20;;;4.47;;
20870;SDS011;10595;51.218;3.452;2024-01-10T05:04:58;7.60;;;4.20;;
20870;SDS011;10595;51.218;3.452;2024-01-10T05:07:24;8.07;;;4.53;;
20870;SDS011;10595;51.218;3.452;2024-01-10T05:09:50;8.63;;;3.67;;
20870;SDS011;10595;51.218;3.452;2024-01-10T05:12:16;8.47;;;4.77;;
20870;SDS011;10595;51.218;3.452;2024-01-10T05:14:41;8.43;;;4.13;;
20870;SDS011;10595;51.218;3.452;2024-01-10T05:17:07;6.13;;;4.17;;
20870;SDS011;10595;51.218;3.452;2024-01-10T05:19:33;7.20;;;4.03;;
20870;SDS011;10595;51.218;3.452;2024-01-10T05:21:59;7.67;;;4.07;;
20870;SDS011;10595;51.218;3.452;2024-01-10T05:24:25;6.90;;;3.93;;
20870;SDS011;10595;51.218;3.452;2024-01-10T05:26:51;7.13;;;4.30;;
20870;SDS011;10595;51.218;3.452;2024-01-10T05:29:17;8.23;;;4.13;;
20870;SDS011;10595;51.218;3.452;2024-01-10T05:31:44;9.03;;;4.37;;
20870;SDS011;10595;51.218;3.452;2024-01-10T05:34:11;6.53;;;3.60;;
20870;SDS011;10595;51.218;3.452;2024-01-10T05:36:37;9.07;;;4.23;;
20870;SDS011;10595;51.218;3.452;2024-01-10T05:39:03;10.97;;;4.90;;
20870;SDS011;10595;51.218;3.452;2024-01-10T05:41:29;7.40;;;4.10;;
20870;SDS011;10595;51.218;3.452;2024-01-10T05:43:55;9.67;;;4.60;;
20870;SDS011;10595;51.218;3.452;2024-01-10T05:46:21;8.97;;;4.03;;
20870;SDS011;10595;51.218;3.452;2024-01-10T05:48:47;6.57;;;4.07;;
20870;SDS011;10595;51.218;3.452;2024-01-10T05:51:13;8.80;;;4.27;;
20870;SDS011;10595;51.218;3.452;2024-01-10T05:53:40;8.30;;;3.77;;
20870;SDS011;10595;51.218;3.452;2024-01-10T05:56:06;7.17;;;3.80;;
20870;SDS011;10595;51.218;3.452;2024-01-10T05:58:32;8.43;;;4.57;;
20870;SDS011;10595;51.218;3.452;2024-01-10T06:00:58;7.50;;;3.90;;
20870;SDS011;10595;51.218;3.452;2024-01-10T06:03:24;8.60;;;4.17;;
20870;SDS011;10595;51.218;3.452;2024-01-10T06:05:50;6.90;;;3.60;;
20870;SDS011;10595;51.218;3.452;2024-01-10T06:08:16;8.53;;;4.53;;
20870;SDS011;10595;51.218;3.452;2024-01-10T06:10:42;8.97;;;4.47;;
20870;SDS011;10595;51.218;3.452;2024-01-10T06:13:08;13.60;;;6.27;;
20870;SDS011;10595;51.218;3.452;2024-01-10T06:15:34;11.90;;;6.53;;
20870;SDS011;10595;51.218;3.452;2024-01-10T06:18:00;9.97;;;5.80;;
20870;SDS011;10595;51.218;3.452;2024-01-10T06:20:26;7.97;;;4.90;;
20870;SDS011;10595;51.218;3.452;2024-01-10T06:22:52;7.77;;;4.10;;
20870;SDS011;10595;51.218;3.452;2024-01-10T06:25:18;6.70;;;4.07;;
20870;SDS011;10595;51.218;3.452;2024-01-10T06:27:44;7.17;;;4.30;;
20870;SDS011;10595;51.218;3.452;2024-01-10T06:30:11;10.50;;;4.93;;
20870;SDS011;10595;51.218;3.452;2024-01-10T06:32:37;8.30;;;4.27;;
20870;SDS011;10595;51.218;3.452;2024-01-10T06:35:03;8.90;;;4.30;;
20870;SDS011;10595;51.218;3.452;2024-01-10T06:37:29;7.83;;;4.30;;
20870;SDS011;10595;51.218;3.452;2024-01-10T06:39:55;8.20;;;4.10;;
20870;SDS011;10595;51.218;3.452;2024-01-10T06:42:21;8.07;;;4.40;;
20870;SDS011;10595;51.218;3.452;2024-01-10T06:44:47;7.57;;;4.60;;
20870;SDS011;10595;51.218;3.452;2024-01-10T06:47:13;10.23;;;4.50;;
20870;SDS011;10595;51.218;3.452;2024-01-10T06:49:39;8.63;;;4.20;;
20870;SDS011;10595;51.218;3.452;2024-01-10T06:52:05;10.53;;;4.47;;
20870;SDS011;10595;51.218;3.452;2024-01-10T06:54:33;7.47;;;4.30;;
20870;SDS011;10595;51.218;3.452;2024-01-10T06:56:59;8.63;;;5.03;;
20870;SDS011;10595;51.218;3.452;2024-01-10T06:59:25;8.73;;;5.03;;
20870;SDS011;10595;51.218;3.452;2024-01-10T07:01:52;10.23;;;5.60;;
20870;SDS011;10595;51.218;3.452;2024-01-10T07:04:18;8.77;;;4.67;;
20870;SDS011;10595;51.218;3.452;2024-01-10T07:06:47;8.20;;;4.47;;
20870;SDS011;10595;51.218;3.452;2024-01-10T07:09:13;9.80;;;4.90;;
20870;SDS011;10595;51.218;3.452;2024-01-10T07:11:44;12.83;;;5.30;;
20870;SDS011;10595;51.218;3.452;2024-01-10T07:14:10;11.40;;;5.87;;
20870;SDS011;10595;51.218;3.452;2024-01-10T07:16:36;9.70;;;4.70;;
20870;SDS011;10595;51.218;3.452;2024-01-10T07:19:03;12.27;;;5.13;;
20870;SDS011;10595;51.218;3.452;2024-01-10T07:21:29;11.87;;;5.47;;
20870;SDS011;10595;51.218;3.452;2024-01-10T07:23:55;8.10;;;4.40;;
20870;SDS011;10595;51.218;3.452;2024-01-10T07:26:21;10.27;;;4.77;;
20870;SDS011;10595;51.218;3.452;2024-01-10T07:28:47;7.77;;;4.47;;
20870;SDS011;10595;51.218;3.452;2024-01-10T07:31:13;10.87;;;4.60;;
20870;SDS011;10595;51.218;3.452;2024-01-10T07:33:39;7.30;;;4.17;;
20870;SDS011;10595;51.218;3.452;2024-01-10T07:36:05;8.20;;;4.63;;
20870;SDS011;10595;51.218;3.452;2024-01-10T07:38:32;10.30;;;4.80;;
20870;SDS011;10595;51.218;3.452;2024-01-10T07:40:58;8.20;;;4.23;;
20870;SDS011;10595;51.218;3.452;2024-01-10T07:43:24;9.97;;;4.47;;
20870;SDS011;10595;51.218;3.452;2024-01-10T07:45:52;8.87;;;4.43;;
20870;SDS011;10595;51.218;3.452;2024-01-10T07:48:18;9.80;;;4.60;;
20870;SDS011;10595;51.218;3.452;2024-01-10T07:50:45;18.30;;;8.00;;
20870;SDS011;10595;51.218;3.452;2024-01-10T07:53:11;11.60;;;5.70;;
20870;SDS011;10595;51.218;3.452;2024-01-10T07:55:38;10.27;;;5.70;;
20870;SDS011;10595;51.218;3.452;2024-01-10T07:58:04;8.03;;;5.17;;
20870;SDS011;10595;51.218;3.452;2024-01-10T08:00:30;11.13;;;5.50;;
20870;SDS011;10595;51.218;3.452;2024-01-10T08:02:56;18.53;;;8.00;;
20870;SDS011;10595;51.218;3.452;2024-01-10T08:05:23;11.93;;;6.57;;
20870;SDS011;10595;51.218;3.452;2024-01-10T08:07:49;12.27;;;5.07;;
20870;SDS011;10595;51.218;3.452;2024-01-10T08:10:15;11.60;;;6.43;;
20870;SDS011;10595;51.218;3.452;2024-01-10T08:12:41;12.50;;;5.60;;
20870;SDS011;10595;51.218;3.452;2024-01-10T08:15:07;10.67;;;5.43;;
20870;SDS011;10595;51.218;3.452;2024-01-10T08:17:33;12.40;;;5.50;;
20870;SDS011;10595;51.218;3.452;2024-01-10T08:20:02;8.27;;;4.77;;
20870;SDS011;10595;51.218;3.452;2024-01-10T08:22:29;11.40;;;4.90;;
20870;SDS011;10595;51.218;3.452;2024-01-10T08:24:55;8.83;;;4.90;;
20870;SDS011;10595;51.218;3.452;2024-01-10T08:27:21;12.93;;;4.73;;
20870;SDS011;10595;51.218;3.452;2024-01-10T08:29:47;10.20;;;4.77;;
20870;SDS011;10595;51.218;3.452;2024-01-10T08:32:13;9.83;;;4.87;;
20870;SDS011;10595;51.218;3.452;2024-01-10T08:34:40;7.57;;;4.47;;
20870;SDS011;10595;51.218;3.452;2024-01-10T08:37:06;10.17;;;4.90;;
20870;SDS011;10595;51.218;3.452;2024-01-10T08:39:32;7.47;;;4.60;;
20870;SDS011;10595;51.218;3.452;2024-01-10T08:41:58;11.83;;;4.87;;
20870;SDS011;10595;51.218;3.452;2024-01-10T08:44:24;10.13;;;4.10;;
20870;SDS011;10595;51.218;3.452;2024-01-10T08:46:50;7.60;;;4.73;;
20870;SDS011;10595;51.218;3.452;2024-01-10T08:49:17;9.53;;;4.27;;
20870;SDS011;10595;51.218;3.452;2024-01-10T08:51:43;9.17;;;4.30;;
20870;SDS011;10595;51.218;3.452;2024-01-10T08:54:11;9.47;;;4.90;;
20870;SDS011;10595;51.218;3.452;2024-01-10T08:56:44;9.57;;;4.70;;
20870;SDS011;10595;51.218;3.452;2024-01-10T08:59:11;10.40;;;5.13;;
20870;SDS011;10595;51.218;3.452;2024-01-10T09:01:37;13.20;;;5.17;;
20870;SDS011;10595;51.218;3.452;2024-01-10T09:04:06;9.77;;;4.97;;
20870;SDS011;10595;51.218;3.452;2024-01-10T09:06:32;10.03;;;4.93;;
20870;SDS011;10595;51.218;3.452;2024-01-10T09:08:59;8.37;;;5.00;;
20870;SDS011;10595;51.218;3.452;2024-01-10T09:11:26;11.50;;;5.13;;
20870;SDS011;10595;51.218;3.452;2024-01-10T09:13:52;14.07;;;4.97;;
20870;SDS011;10595;51.218;3.452;2024-01-10T09:16:18;9.07;;;5.27;;
20870;SDS011;10595;51.218;3.452;2024-01-10T09:18:44;11.73;;;5.67;;
20870;SDS011;10595;51.218;3.452;2024-01-10T09:21:10;14.57;;;5.77;;
20870;SDS011;10595;51.218;3.452;2024-01-10T09:23:37;13.27;;;5.73;;
20870;SDS011;10595;51.218;3.452;2024-01-10T09:26:03;10.93;;;6.50;;
20870;SDS011;10595;51.218;3.452;2024-01-10T09:28:29;21.33;;;8.50;;
20870;SDS011;10595;51.218;3.452;2024-01-10T09:30:55;19.27;;;8.00;;
20870;SDS011;10595;51.218;3.452;2024-01-10T09:33:21;11.80;;;5.70;;
20870;SDS011;10595;51.218;3.452;2024-01-10T09:35:48;12.77;;;6.60;;
20870;SDS011;10595;51.218;3.452;2024-01-10T09:38:14;11.73;;;6.57;;
20870;SDS011;10595;51.218;3.452;2024-01-10T09:40:40;11.70;;;6.80;;
20870;SDS011;10595;51.218;3.452;2024-01-10T09:43:07;13.80;;;6.60;;
20870;SDS011;10595;51.218;3.452;2024-01-10T09:45:35;15.60;;;6.80;;
20870;SDS011;10595;51.218;3.452;2024-01-10T09:48:03;12.77;;;6.77;;
20870;SDS011;10595;51.218;3.452;2024-01-10T09:50:29;13.20;;;6.90;;
20870;SDS011;10595;51.218;3.452;2024-01-10T09:53:05;14.57;;;6.67;;
20870;SDS011;10595;51.218;3.452;2024-01-10T09:55:36;14.60;;;7.33;;
20870;SDS011;10595;51.218;3.452;2024-01-10T09:58:06;12.53;;;6.70;;
20870;SDS011;10595;51.218;3.452;2024-01-10T10:00:34;12.73;;;6.27;;
20870;SDS011;10595;51.218;3.452;2024-01-10T10:03:01;14.43;;;6.43;;
20870;SDS011;10595;51.218;3.452;2024-01-10T10:05:27;11.67;;;6.57;;
20870;SDS011;10595;51.218;3.452;2024-01-10T10:07:54;12.00;;;6.40;;
20870;SDS011;10595;51.218;3.452;2024-01-10T10:10:20;11.53;;;6.30;;
20870;SDS011;10595;51.218;3.452;2024-01-10T10:12:49;15.30;;;7.30;;
20870;SDS011;10595;51.218;3.452;2024-01-10T10:15:19;14.23;;;7.30;;
20870;SDS011;10595;51.218;3.452;2024-01-10T10:17:47;15.43;;;7.20;;
20870;SDS011;10595;51.218;3.452;2024-01-10T10:20:29;16.83;;;6.97;;
20870;SDS011;10595;51.218;3.452;2024-01-10T10:22:58;14.27;;;6.90;;
20870;SDS011;10595;51.218;3.452;2024-01-10T10:25:34;14.70;;;7.77;;
20870;SDS011;10595;51.218;3.452;2024-01-10T10:28:02;16.80;;;7.33;;
20870;SDS011;10595;51.218;3.452;2024-01-10T10:30:28;13.97;;;6.70;;
20870;SDS011;10595;51.218;3.452;2024-01-10T10:32:54;16.90;;;7.30;;
20870;SDS011;10595;51.218;3.452;2024-01-10T10:35:21;14.57;;;7.40;;
20870;SDS011;10595;51.218;3.452;2024-01-10T10:37:50;15.53;;;7.80;;
20870;SDS011;10595;51.218;3.452;2024-01-10T10:40:16;12.80;;;7.73;;
20870;SDS011;10595;51.218;3.452;2024-01-10T10:42:53;15.30;;;6.90;;
20870;SDS011;10595;51.218;3.452;2024-01-10T10:45:20;16.57;;;7.13;;
20870;SDS011;10595;51.218;3.452;2024-01-10T10:47:59;13.83;;;6.70;;
20870;SDS011;10595;51.218;3.452;2024-01-10T10:50:27;13.90;;;7.03;;
20870;SDS011;10595;51.218;3.452;2024-01-10T10:52:54;13.73;;;6.23;;
20870;SDS011;10595;51.218;3.452;2024-01-10T10:55:21;13.47;;;6.63;;
20870;SDS011;10595;51.218;3.452;2024-01-10T10:57:49;12.97;;;6.83;;
20870;SDS011;10595;51.218;3.452;2024-01-10T11:00:18;14.67;;;6.63;;
20870;SDS011;10595;51.218;3.452;2024-01-10T11:02:45;15.00;;;6.30;;
20870;SDS011;10595;51.218;3.452;2024-01-10T11:05:11;11.67;;;6.30;;
20870;SDS011;10595;51.218;3.452;2024-01-10T11:07:41;11.90;;;6.13;;
20870;SDS011;10595;51.218;3.452;2024-01-10T11:10:13;13.17;;;6.73;;
20870;SDS011;10595;51.218;3.452;2024-01-10T11:12:53;12.30;;;6.87;;
20870;SDS011;10595;51.218;3.452;2024-01-10T11:18:02;12.07;;;6.17;;
20870;SDS011;10595;51.218;3.452;2024-01-10T11:20:44;12.97;;;6.60;;
20870;SDS011;10595;51.218;3.452;2024-01-10T11:23:20;12.67;;;6.50;;
20870;SDS011;10595;51.218;3.452;2024-01-10T11:25:48;16.93;;;6.77;;
20870;SDS011;10595;51.218;3.452;2024-01-10T11:28:14;15.80;;;7.43;;
20870;SDS011;10595;51.218;3.452;2024-01-10T11:30:50;14.97;;;6.97;;
20870;SDS011;10595;51.218;3.452;2024-01-10T11:33:25;12.57;;;6.93;;
20870;SDS011;10595;51.218;3.452;2024-01-10T11:36:11;12.90;;;6.33;;
20870;SDS011;10595;51.218;3.452;2024-01-10T11:38:39;12.33;;;6.67;;
20870;SDS011;10595;51.218;3.452;2024-01-10T11:41:06;13.00;;;7.00;;
20870;SDS011;10595;51.218;3.452;2024-01-10T11:43:33;14.27;;;7.53;;
20870;SDS011;10595;51.218;3.452;2024-01-10T11:45:59;12.03;;;6.87;;
20870;SDS011;10595;51.218;3.452;2024-01-10T11:48:27;16.57;;;7.00;;
20870;SDS011;10595;51.218;3.452;2024-01-10T11:50:53;13.20;;;6.87;;
20870;SDS011;10595;51.218;3.452;2024-01-10T11:56:15;12.50;;;6.63;;
20870;SDS011;10595;51.218;3.452;2024-01-10T11:58:51;13.57;;;7.20;;
20870;SDS011;10595;51.218;3.452;2024-01-10T12:01:18;12.47;;;7.20;;
20870;SDS011;10595;51.218;3.452;2024-01-10T12:03:44;13.17;;;6.97;;
20870;SDS011;10595;51.218;3.452;2024-01-10T12:06:10;12.33;;;6.90;;
20870;SDS011;10595;51.218;3.452;2024-01-10T12:08:36;14.37;;;7.20;;
20870;SDS011;10595;51.218;3.452;2024-01-10T12:11:03;13.80;;;7.93;;
20870;SDS011;10595;51.218;3.452;2024-01-10T12:13:29;13.60;;;7.20;;
20870;SDS011;10595;51.218;3.452;2024-01-10T12:15:57;13.57;;;6.87;;
20870;SDS011;10595;51.218;3.452;2024-01-10T12:18:23;14.40;;;7.33;;
20870;SDS011;10595;51.218;3.452;2024-01-10T12:20:49;14.97;;;7.53;;
20870;SDS011;10595;51.218;3.452;2024-01-10T12:23:15;14.30;;;7.53;;
20870;SDS011;10595;51.218;3.452;2024-01-10T12:25:42;15.07;;;7.80;;
20870;SDS011;10595;51.218;3.452;2024-01-10T12:28:08;18.40;;;8.17;;
20870;SDS011;10595;51.218;3.452;2024-01-10T12:30:34;13.70;;;7.33;;
20870;SDS011;10595;51.218;3.452;2024-01-10T12:33:00;14.33;;;7.10;;
20870;SDS011;10595;51.218;3.452;2024-01-10T12:35:26;15.67;;;7.30;;
20870;SDS011;10595;51.218;3.452;2024-01-10T12:37:55;14.57;;;7.87;;
20870;SDS011;10595;51.218;3.452;2024-01-10T12:40:22;14.53;;;7.43;;
20870;SDS011;10595;51.218;3.452;2024-01-10T12:42:48;14.00;;;7.57;;
20870;SDS011;10595;51.218;3.452;2024-01-10T12:45:23;12.70;;;7.30;;
20870;SDS011;10595;51.218;3.452;2024-01-10T12:47:49;15.27;;;7.50;;
20870;SDS011;10595;51.218;3.452;2024-01-10T12:50:16;17.83;;;8.10;;
20870;SDS011;10595;51.218;3.452;2024-01-10T12:52:42;14.50;;;7.90;;
20870;SDS011;10595;51.218;3.452;2024-01-10T12:55:09;14.10;;;7.17;;
20870;SDS011;10595;51.218;3.452;2024-01-10T12:57:35;17.10;;;7.97;;
20870;SDS011;10595;51.218;3.452;2024-01-10T13:00:01;12.47;;;7.20;;
20870;SDS011;10595;51.218;3.452;2024-01-10T13:02:31;16.93;;;7.43;;
20870;SDS011;10595;51.218;3.452;2024-01-10T13:05:02;14.87;;;7.33;;
20870;SDS011;10595;51.218;3.452;2024-01-10T13:07:28;15.97;;;7.30;;
20870;SDS011;10595;51.218;3.452;2024-01-10T13:09:56;11.87;;;6.93;;
20870;SDS011;10595;51.218;3.452;2024-01-10T13:12:22;14.40;;;7.67;;
20870;SDS011;10595;51.218;3.452;2024-01-10T13:14:48;11.90;;;7.90;;
20870;SDS011;10595;51.218;3.452;2024-01-10T13:17:14;12.83;;;7.43;;
20870;SDS011;10595;51.218;3.452;2024-01-10T13:19:41;13.40;;;7.40;;
20870;SDS011;10595;51.218;3.452;2024-01-10T13:22:13;13.60;;;7.33;;
20870;SDS011;10595;51.218;3.452;2024-01-10T13:24:41;14.07;;;7.40;;
20870;SDS011;10595;51.218;3.452;2024-01-10T13:27:07;16.50;;;7.70;;
20870;SDS011;10595;51.218;3.452;2024-01-10T13:29:35;13.50;;;7.20;;
20870;SDS011;10595;51.218;3.452;2024-01-10T13:32:05;16.60;;;7.53;;
20870;SDS011;10595;51.218;3.452;2024-01-10T13:34:31;15.47;;;7.80;;
20870;SDS011;10595;51.218;3.452;2024-01-10T13:37:00;12.63;;;8.00;;
20870;SDS011;10595;51.218;3.452;2024-01-10T13:39:27;15.07;;;7.97;;
20870;SDS011;10595;51.218;3.452;2024-01-10T13:41:53;15.73;;;7.57;;
20870;SDS011;10595;51.218;3.452;2024-01-10T13:44:19;18.40;;;8.67;;
20870;SDS011;10595;51.218;3.452;2024-01-10T13:46:45;17.13;;;7.83;;
20870;SDS011;10595;51.218;3.452;2024-01-10T13:49:14;14.17;;;8.50;;
20870;SDS011;10595;51.218;3.452;2024-01-10T13:51:40;13.77;;;7.63;;
20870;SDS011;10595;51.218;3.452;2024-01-10T13:54:07;15.60;;;7.60;;
20870;SDS011;10595;51.218;3.452;2024-01-10T13:56:33;15.30;;;7.47;;
20870;SDS011;10595;51.218;3.452;2024-01-10T13:59:00;14.40;;;8.03;;
20870;SDS011;10595;51.218;3.452;2024-01-10T14:01:26;14.30;;;7.73;;
20870;SDS011;10595;51.218;3.452;2024-01-10T14:03:52;13.23;;;7.47;;
20870;SDS011;10595;51.218;3.452;2024-01-10T14:06:18;17.03;;;8.10;;
20870;SDS011;10595;51.218;3.452;2024-01-10T14:08:44;13.37;;;8.03;;
20870;SDS011;10595;51.218;3.452;2024-01-10T14:11:13;13.77;;;6.73;;
20870;SDS011;10595;51.218;3.452;2024-01-10T14:13:39;12.97;;;7.40;;
20870;SDS011;10595;51.218;3.452;2024-01-10T14:16:05;12.87;;;7.03;;
20870;SDS011;10595;51.218;3.452;2024-01-10T14:18:31;16.13;;;7.23;;
20870;SDS011;10595;51.218;3.452;2024-01-10T14:20:58;13.43;;;8.07;;
20870;SDS011;10595;51.218;3.452;2024-01-10T14:23:24;15.27;;;7.53;;
20870;SDS011;10595;51.218;3.452;2024-01-10T14:25:50;13.47;;;7.17;;
20870;SDS011;10595;51.218;3.452;2024-01-10T14:28:18;14.90;;;7.73;;
20870;SDS011;10595;51.218;3.452;2024-01-10T14:30:45;13.50;;;7.73;;
20870;SDS011;10595;51.218;3.452;2024-01-10T14:33:11;14.43;;;8.30;;
20870;SDS011;10595;51.218;3.452;2024-01-10T14:35:39;15.50;;;7.60;;
20870;SDS011;10595;51.218;3.452;2024-01-10T14:38:05;15.20;;;7.93;;
20870;SDS011;10595;51.218;3.452;2024-01-10T14:40:31;18.00;;;8.37;;
20870;SDS011;10595;51.218;3.452;2024-01-10T14:42:57;15.20;;;8.10;;
20870;SDS011;10595;51.218;3.452;2024-01-10T14:45:23;14.57;;;7.93;;
20870;SDS011;10595;51.218;3.452;2024-01-10T14:47:49;15.50;;;8.10;;